sensor_id;sensor_type;location;lat;lon;timestamp;pressure;altitude;pressure_sealevel;temperature;humidity
73516;BME280;61763;51.416;5.442;2022-12-13T00:02:01;101187.28;;;-7.90;100.00
73516;BME280;61763;51.416;5.442;2022-12-13T00:04:26;101188.16;;;-7.90;100.00
73516;BME280;61763;51.416;5.442;2022-12-13T00:06:52;101191.59;;;-7.91;100.00
73516;BME280;61763;51.416;5.442;2022-12-13T00:09:20;101196.78;;;-7.93;100.00
73516;BME280;61763;51.416;5.442;2022-12-13T00:11:47;101193.25;;;-7.95;100.00
73516;BME280;61763;51.416;5.442;2022-12-13T00:14:14;101188.94;;;-7.93;100.00
73516;BME280;61763;51.416;5.442;2022-12-13T00:16:40;101181.03;;;-7.94;100.00
73516;BME280;61763;51.416;5.442;2022-12-13T00:19:09;101180.06;;;-7.98;100.00
73516;BME280;61763;51.416;5.442;2022-12-13T00:21:34;101177.22;;;-8.04;100.00
73516;BME280;61763;51.416;5.442;2022-12-13T00:24:00;101179.81;;;-8.05;100.00
73516;BME280;61763;51.416;5.442;2022-12-13T00:26:28;101171.91;;;-8.07;100.00
73516;BME280;61763;51.416;5.442;2022-12-13T00:28:55;101176.25;;;-8.07;100.00
73516;BME280;61763;51.416;5.442;2022-12-13T00:31:23;101170.19;;;-8.06;100.00
73516;BME280;61763;51.416;5.442;2022-12-13T00:33:48;101178.88;;;-8.07;100.00
73516;BME280;61763;51.416;5.442;2022-12-13T00:36:14;101175.28;;;-8.11;100.00
73516;BME280;61763;51.416;5.442;2022-12-13T00:38:40;101170.84;;;-8.14;100.00
73516;BME280;61763;51.416;5.442;2022-12-13T00:41:16;101175.13;;;-8.16;100.00
73516;BME280;61763;51.416;5.442;2022-12-13T00:43:43;101174.25;;;-8.16;100.00
73516;BME280;61763;51.416;5.442;2022-12-13T00:46:14;101167.22;;;-8.17;100.00
73516;BME280;61763;51.416;5.442;2022-12-13T00:48:40;101173.31;;;-8.18;100.00
73516;BME280;61763;51.416;5.442;2022-12-13T00:51:07;101169.75;;;-8.20;100.00
73516;BME280;61763;51.416;5.442;2022-12-13T00:53:33;101167.09;;;-8.22;100.00
73516;BME280;61763;51.416;5.442;2022-12-13T00:55:58;101170.53;;;-8.23;100.00
73516;BME280;61763;51.416;5.442;2022-12-13T00:58:24;101167.03;;;-8.23;100.00
73516;BME280;61763;51.416;5.442;2022-12-13T01:00:49;101163.53;;;-8.24;100.00
73516;BME280;61763;51.416;5.442;2022-12-13T01:03:14;101161.72;;;-8.27;100.00
73516;BME280;61763;51.416;5.442;2022-12-13T01:05:49;101159.03;;;-8.28;100.00
73516;BME280;61763;51.416;5.442;2022-12-13T01:08:15;101159.03;;;-8.28;100.00
73516;BME280;61763;51.416;5.442;2022-12-13T01:10:43;101157.22;;;-8.31;100.00
73516;BME280;61763;51.416;5.442;2022-12-13T01:13:08;101151.00;;;-8.34;100.00
73516;BME280;61763;51.416;5.442;2022-12-13T01:15:33;101159.59;;;-8.38;100.00
73516;BME280;61763;51.416;5.442;2022-12-13T01:17:59;101150.81;;;-8.40;100.00
73516;BME280;61763;51.416;5.442;2022-12-13T01:20:24;101157.91;;;-8.36;100.00
73516;BME280;61763;51.416;5.442;2022-12-13T01:22:50;101152.56;;;-8.39;100.00
73516;BME280;61763;51.416;5.442;2022-12-13T01:25:15;101148.25;;;-8.39;100.00
73516;BME280;61763;51.416;5.442;2022-12-13T01:27:40;101153.44;;;-8.40;100.00
73516;BME280;61763;51.416;5.442;2022-12-13T01:30:06;101149.13;;;-8.38;100.00
73516;BME280;61763;51.416;5.442;2022-12-13T01:32:31;101150.88;;;-8.39;100.00
73516;BME280;61763;51.416;5.442;2022-12-13T01:34:57;101147.28;;;-8.41;100.00
73516;BME280;61763;51.416;5.442;2022-12-13T01:37:22;101151.69;;;-8.40;100.00
73516;BME280;61763;51.416;5.442;2022-12-13T01:39:47;101155.09;;;-8.42;100.00
73516;BME280;61763;51.416;5.442;2022-12-13T01:42:13;101158.81;;;-8.36;100.00
73516;BME280;61763;51.416;5.442;2022-12-13T01:45:02;101163.22;;;-8.33;100.00
73516;BME280;61763;51.416;5.442;2022-12-13T01:49:55;101166.94;;;-8.27;100.00
73516;BME280;61763;51.416;5.442;2022-12-13T01:52:21;101166.03;;;-8.29;100.00
73516;BME280;61763;51.416;5.442;2022-12-13T01:54:50;101164.28;;;-8.28;100.00
73516;BME280;61763;51.416;5.442;2022-12-13T01:57:18;101167.78;;;-8.28;100.00
73516;BME280;61763;51.416;5.442;2022-12-13T01:59:46;101159.88;;;-8.29;100.00
73516;BME280;61763;51.416;5.442;2022-12-13T02:02:14;101158.13;;;-8.30;100.00
73516;BME280;61763;51.416;5.442;2022-12-13T02:04:58;101161.56;;;-8.31;100.00
73516;BME280;61763;51.416;5.442;2022-12-13T02:07:30;101152.75;;;-8.33;100.00
73516;BME280;61763;51.416;5.442;2022-12-13T02:09:59;101156.25;;;-8.34;100.00
73516;BME280;61763;51.416;5.442;2022-12-13T02:12:28;101152.09;;;-8.26;100.00
73516;BME280;61763;51.416;5.442;2022-12-13T02:14:54;101163.31;;;-8.03;100.00
73516;BME280;61763;51.416;5.442;2022-12-13T02:31:09;101151.44;;;-7.29;100.00
73516;BME280;61763;51.416;5.442;2022-12-13T02:33:52;101153.84;;;-7.05;100.00
73516;BME280;61763;51.416;5.442;2022-12-13T02:39:16;101140.88;;;-6.99;100.00
73516;BME280;61763;51.416;5.442;2022-12-13T02:41:45;101140.00;;;-6.98;100.00
73516;BME280;61763;51.416;5.442;2022-12-13T02:44:20;101143.00;;;-6.84;100.00
73516;BME280;61763;51.416;5.442;2022-12-13T02:47:14;101138.75;;;-6.79;100.00
73516;BME280;61763;51.416;5.442;2022-12-13T02:49:47;101139.25;;;-6.94;100.00
73516;BME280;61763;51.416;5.442;2022-12-13T02:52:15;101135.09;;;-6.85;100.00
73516;BME280;61763;51.416;5.442;2022-12-13T02:54:41;101131.53;;;-6.88;100.00
73516;BME280;61763;51.416;5.442;2022-12-13T02:57:31;101129.09;;;-6.81;100.00
73516;BME280;61763;51.416;5.442;2022-12-13T02:59:59;101123.94;;;-6.77;100.00
73516;BME280;61763;51.416;5.442;2022-12-13T03:05:47;101114.81;;;-6.56;100.00
73516;BME280;61763;51.416;5.442;2022-12-13T03:11:11;101125.47;;;-6.85;100.00
73516;BME280;61763;51.416;5.442;2022-12-13T03:14:07;101126.56;;;-6.77;100.00
73516;BME280;61763;51.416;5.442;2022-12-13T03:16:39;101122.00;;;-6.84;100.00
73516;BME280;61763;51.416;5.442;2022-12-13T03:19:09;101127.88;;;-6.94;100.00
73516;BME280;61763;51.416;5.442;2022-12-13T03:21:44;101121.03;;;-6.88;100.00
73516;BME280;61763;51.416;5.442;2022-12-13T03:24:11;101121.69;;;-6.96;100.00
73516;BME280;61763;51.416;5.442;2022-12-13T03:26:37;101133.78;;;-7.03;100.00
73516;BME280;61763;51.416;5.442;2022-12-13T03:29:04;101117.31;;;-6.97;100.00
73516;BME280;61763;51.416;5.442;2022-12-13T03:31:29;101117.47;;;-6.91;100.00
73516;BME280;61763;51.416;5.442;2022-12-13T03:33:55;101113.69;;;-7.01;100.00
73516;BME280;61763;51.416;5.442;2022-12-13T03:36:20;101120.53;;;-7.08;100.00
73516;BME280;61763;51.416;5.442;2022-12-13T03:38:47;101120.22;;;-6.85;100.00
73516;BME280;61763;51.416;5.442;2022-12-13T03:41:16;101117.59;;;-6.85;100.00
73516;BME280;61763;51.416;5.442;2022-12-13T03:43:42;101115.13;;;-6.79;100.00
73516;BME280;61763;51.416;5.442;2022-12-13T03:46:08;101117.50;;;-6.90;100.00
73516;BME280;61763;51.416;5.442;2022-12-13T03:48:34;101112.69;;;-6.73;100.00
73516;BME280;61763;51.416;5.442;2022-12-13T03:51:00;101113.34;;;-6.81;100.00
73516;BME280;61763;51.416;5.442;2022-12-13T03:53:25;101114.44;;;-6.72;100.00
73516;BME280;61763;51.416;5.442;2022-12-13T03:55:51;101108.97;;;-6.81;100.00
73516;BME280;61763;51.416;5.442;2022-12-13T03:58:16;101112.56;;;-6.76;100.00
73516;BME280;61763;51.416;5.442;2022-12-13T04:00:42;101111.44;;;-6.50;100.00
73516;BME280;61763;51.416;5.442;2022-12-13T04:03:07;101112.19;;;-6.56;100.00
73516;BME280;61763;51.416;5.442;2022-12-13T04:05:32;101096.84;;;-6.38;100.00
73516;BME280;61763;51.416;5.442;2022-12-13T04:07:58;101106.31;;;-6.46;100.00
73516;BME280;61763;51.416;5.442;2022-12-13T04:10:23;101101.13;;;-6.43;100.00
73516;BME280;61763;51.416;5.442;2022-12-13T04:12:49;101102.47;;;-6.22;100.00
73516;BME280;61763;51.416;5.442;2022-12-13T04:15:33;101100.66;;;-6.23;100.00
73516;BME280;61763;51.416;5.442;2022-12-13T04:17:58;101096.19;;;-6.27;100.00
73516;BME280;61763;51.416;5.442;2022-12-13T04:20:24;101091.91;;;-6.24;100.00
73516;BME280;61763;51.416;5.442;2022-12-13T04:22:49;101095.13;;;-6.37;100.00
73516;BME280;61763;51.416;5.442;2022-12-13T04:25:14;101095.38;;;-6.25;100.00
73516;BME280;61763;51.416;5.442;2022-12-13T04:27:40;101096.16;;;-6.29;100.00
73516;BME280;61763;51.416;5.442;2022-12-13T04:30:06;101095.28;;;-6.29;100.00
73516;BME280;61763;51.416;5.442;2022-12-13T04:32:32;101086.69;;;-6.22;100.00
73516;BME280;61763;51.416;5.442;2022-12-13T04:34:57;101090.91;;;-6.29;100.00
73516;BME280;61763;51.416;5.442;2022-12-13T04:37:23;101085.69;;;-6.27;100.00
73516;BME280;61763;51.416;5.442;2022-12-13T04:39:48;101087.47;;;-6.26;100.00
73516;BME280;61763;51.416;5.442;2022-12-13T04:42:14;101083.13;;;-6.24;100.00
73516;BME280;61763;51.416;5.442;2022-12-13T04:44:40;101092.75;;;-6.25;100.00
73516;BME280;61763;51.416;5.442;2022-12-13T04:47:05;101082.94;;;-6.34;100.00
73516;BME280;61763;51.416;5.442;2022-12-13T04:49:31;101076.75;;;-6.37;100.00
73516;BME280;61763;51.416;5.442;2022-12-13T04:51:56;101070.09;;;-6.21;100.00
73516;BME280;61763;51.416;5.442;2022-12-13T04:54:22;101069.19;;;-6.22;100.00
73516;BME280;61763;51.416;5.442;2022-12-13T04:56:47;101069.97;;;-6.26;100.00
73516;BME280;61763;51.416;5.442;2022-12-13T04:59:13;101066.94;;;-6.44;100.00
73516;BME280;61763;51.416;5.442;2022-12-13T05:01:38;101070.28;;;-6.52;100.00
73516;BME280;61763;51.416;5.442;2022-12-13T05:04:04;101069.59;;;-6.43;100.00
73516;BME280;61763;51.416;5.442;2022-12-13T05:06:29;101073.84;;;-6.48;100.00
73516;BME280;61763;51.416;5.442;2022-12-13T05:08:54;101065.94;;;-6.49;100.00
73516;BME280;61763;51.416;5.442;2022-12-13T05:11:20;101069.13;;;-6.63;100.00
73516;BME280;61763;51.416;5.442;2022-12-13T05:13:45;101066.22;;;-6.75;100.00
73516;BME280;61763;51.416;5.442;2022-12-13T05:16:11;101071.31;;;-6.83;100.00
73516;BME280;61763;51.416;5.442;2022-12-13T05:18:37;101066.94;;;-6.82;100.00
73516;BME280;61763;51.416;5.442;2022-12-13T05:21:08;101073.44;;;-7.03;100.00
73516;BME280;61763;51.416;5.442;2022-12-13T05:23:34;101059.69;;;-6.93;100.00
73516;BME280;61763;51.416;5.442;2022-12-13T05:26:00;101062.63;;;-6.79;100.00
73516;BME280;61763;51.416;5.442;2022-12-13T05:28:26;101064.97;;;-6.91;100.00
73516;BME280;61763;51.416;5.442;2022-12-13T05:30:58;101065.59;;;-7.01;100.00
73516;BME280;61763;51.416;5.442;2022-12-13T05:33:29;101062.63;;;-7.15;100.00
73516;BME280;61763;51.416;5.442;2022-12-13T05:35:55;101061.66;;;-7.19;100.00
73516;BME280;61763;51.416;5.442;2022-12-13T05:38:20;101066.34;;;-7.06;100.00
73516;BME280;61763;51.416;5.442;2022-12-13T05:40:46;101066.28;;;-7.09;100.00
73516;BME280;61763;51.416;5.442;2022-12-13T05:43:11;101074.28;;;-7.04;100.00
73516;BME280;61763;51.416;5.442;2022-12-13T05:45:36;101067.63;;;-6.90;100.00
73516;BME280;61763;51.416;5.442;2022-12-13T05:48:02;101065.38;;;-7.11;100.00
73516;BME280;61763;51.416;5.442;2022-12-13T05:50:28;101066.72;;;-7.27;100.00
73516;BME280;61763;51.416;5.442;2022-12-13T05:52:53;101063.50;;;-7.15;100.00
73516;BME280;61763;51.416;5.442;2022-12-13T05:55:18;101060.03;;;-7.15;100.00
73516;BME280;61763;51.416;5.442;2022-12-13T05:57:44;101057.41;;;-7.15;100.00
73516;BME280;61763;51.416;5.442;2022-12-13T06:00:11;101060.53;;;-6.94;100.00
73516;BME280;61763;51.416;5.442;2022-12-13T06:02:37;101060.41;;;-6.98;100.00
73516;BME280;61763;51.416;5.442;2022-12-13T06:05:03;101060.16;;;-6.74;100.00
73516;BME280;61763;51.416;5.442;2022-12-13T06:07:29;101064.56;;;-6.72;100.00
73516;BME280;61763;51.416;5.442;2022-12-13T06:09:55;101069.91;;;-6.67;100.00
73516;BME280;61763;51.416;5.442;2022-12-13T06:12:20;101071.63;;;-6.69;100.00
73516;BME280;61763;51.416;5.442;2022-12-13T06:14:46;101070.38;;;-6.85;100.00
73516;BME280;61763;51.416;5.442;2022-12-13T06:17:13;101072.16;;;-6.84;100.00
73516;BME280;61763;51.416;5.442;2022-12-13T06:19:38;101060.88;;;-6.80;100.00
73516;BME280;61763;51.416;5.442;2022-12-13T06:22:03;101076.09;;;-6.65;100.00
73516;BME280;61763;51.416;5.442;2022-12-13T06:24:29;101063.94;;;-6.60;100.00
73516;BME280;61763;51.416;5.442;2022-12-13T06:26:55;101066.41;;;-6.67;100.00
73516;BME280;61763;51.416;5.442;2022-12-13T06:29:21;101064.81;;;-6.61;100.00
73516;BME280;61763;51.416;5.442;2022-12-13T06:31:47;101064.28;;;-6.46;100.00
73516;BME280;61763;51.416;5.442;2022-12-13T06:34:12;101067.09;;;-6.37;100.00
73516;BME280;61763;51.416;5.442;2022-12-13T06:36:38;101064.22;;;-6.49;100.00
73516;BME280;61763;51.416;5.442;2022-12-13T06:39:04;101066.66;;;-6.57;100.00
73516;BME280;61763;51.416;5.442;2022-12-13T06:41:30;101069.94;;;-6.65;100.00
73516;BME280;61763;51.416;5.442;2022-12-13T06:43:56;101070.06;;;-6.61;100.00
73516;BME280;61763;51.416;5.442;2022-12-13T06:46:21;101067.56;;;-6.56;100.00
73516;BME280;61763;51.416;5.442;2022-12-13T06:48:47;101061.97;;;-6.70;100.00
73516;BME280;61763;51.416;5.442;2022-12-13T06:51:13;101058.53;;;-6.67;100.00
73516;BME280;61763;51.416;5.442;2022-12-13T06:53:39;101062.16;;;-6.62;100.00
73516;BME280;61763;51.416;5.442;2022-12-13T06:56:07;101057.78;;;-6.62;100.00
73516;BME280;61763;51.416;5.442;2022-12-13T06:58:33;101048.31;;;-6.55;100.00
73516;BME280;61763;51.416;5.442;2022-12-13T07:01:21;101057.31;;;-6.44;100.00
73516;BME280;61763;51.416;5.442;2022-12-13T07:03:45;101063.22;;;-6.54;100.00
73516;BME280;61763;51.416;5.442;2022-12-13T07:06:19;101059.81;;;-6.50;100.00
73516;BME280;61763;51.416;5.442;2022-12-13T07:08:52;101063.19;;;-6.56;100.00
73516;BME280;61763;51.416;5.442;2022-12-13T07:11:26;101061.53;;;-6.52;100.00
73516;BME280;61763;51.416;5.442;2022-12-13T07:13:52;101054.50;;;-6.53;100.00
73516;BME280;61763;51.416;5.442;2022-12-13T07:16:18;101059.75;;;-6.53;100.00
73516;BME280;61763;51.416;5.442;2022-12-13T07:18:44;101051.22;;;-6.43;100.00
73516;BME280;61763;51.416;5.442;2022-12-13T07:21:12;101046.78;;;-6.45;100.00
73516;BME280;61763;51.416;5.442;2022-12-13T07:23:38;101045.06;;;-6.43;100.00
73516;BME280;61763;51.416;5.442;2022-12-13T07:26:05;101047.75;;;-6.42;100.00
73516;BME280;61763;51.416;5.442;2022-12-13T07:28:32;101048.50;;;-6.47;100.00
73516;BME280;61763;51.416;5.442;2022-12-13T07:31:04;101048.47;;;-6.49;100.00
73516;BME280;61763;51.416;5.442;2022-12-13T07:33:30;101051.84;;;-6.55;100.00
73516;BME280;61763;51.416;5.442;2022-12-13T07:36:18;101049.88;;;-6.63;100.00
73516;BME280;61763;51.416;5.442;2022-12-13T07:38:49;101058.59;;;-6.64;100.00
73516;BME280;61763;51.416;5.442;2022-12-13T07:41:15;101059.72;;;-6.55;100.00
73516;BME280;61763;51.416;5.442;2022-12-13T07:43:40;101065.91;;;-6.51;100.00
73516;BME280;61763;51.416;5.442;2022-12-13T07:46:05;101067.63;;;-6.53;100.00
73516;BME280;61763;51.416;5.442;2022-12-13T07:48:32;101067.75;;;-6.47;100.00
73516;BME280;61763;51.416;5.442;2022-12-13T07:51:03;101065.34;;;-6.36;100.00
73516;BME280;61763;51.416;5.442;2022-12-13T07:53:28;101074.94;;;-6.40;100.00
73516;BME280;61763;51.416;5.442;2022-12-13T07:55:54;101073.41;;;-6.30;100.00
73516;BME280;61763;51.416;5.442;2022-12-13T07:58:20;101069.06;;;-6.28;100.00
73516;BME280;61763;51.416;5.442;2022-12-13T08:00:45;101077.03;;;-6.23;100.00
73516;BME280;61763;51.416;5.442;2022-12-13T08:03:12;101075.47;;;-6.15;100.00
73516;BME280;61763;51.416;5.442;2022-12-13T08:05:37;101073.72;;;-6.14;100.00
73516;BME280;61763;51.416;5.442;2022-12-13T08:08:04;101068.50;;;-6.13;100.00
73516;BME280;61763;51.416;5.442;2022-12-13T08:10:30;101066.94;;;-6.05;100.00
73516;BME280;61763;51.416;5.442;2022-12-13T08:12:56;101075.00;;;-5.94;100.00
73516;BME280;61763;51.416;5.442;2022-12-13T08:15:22;101070.00;;;-5.80;100.00
73516;BME280;61763;51.416;5.442;2022-12-13T08:17:48;101069.09;;;-5.82;100.00
73516;BME280;61763;51.416;5.442;2022-12-13T08:20:14;101062.06;;;-5.83;100.00
73516;BME280;61763;51.416;5.442;2022-12-13T08:22:39;101073.59;;;-5.76;100.00
73516;BME280;61763;51.416;5.442;2022-12-13T08:25:06;101069.28;;;-5.73;100.00
73516;BME280;61763;51.416;5.442;2022-12-13T08:27:32;101074.56;;;-5.71;100.00
73516;BME280;61763;51.416;5.442;2022-12-13T08:29:57;101085.19;;;-5.67;100.00
73516;BME280;61763;51.416;5.442;2022-12-13T08:32:23;101080.94;;;-5.58;100.00
73516;BME280;61763;51.416;5.442;2022-12-13T08:34:48;101078.97;;;-5.70;100.00
73516;BME280;61763;51.416;5.442;2022-12-13T08:37:14;101084.50;;;-5.58;100.00
73516;BME280;61763;51.416;5.442;2022-12-13T08:39:40;101078.44;;;-5.52;100.00
73516;BME280;61763;51.416;5.442;2022-12-13T08:42:11;101079.38;;;-5.50;100.00
73516;BME280;61763;51.416;5.442;2022-12-13T08:44:39;101081.06;;;-5.52;100.00
73516;BME280;61763;51.416;5.442;2022-12-13T08:47:05;101068.78;;;-5.53;100.00
73516;BME280;61763;51.416;5.442;2022-12-13T08:49:30;101088.38;;;-5.37;100.00
73516;BME280;61763;51.416;5.442;2022-12-13T08:51:56;101090.09;;;-5.38;100.00
73516;BME280;61763;51.416;5.442;2022-12-13T08:54:22;101084.06;;;-5.34;100.00
73516;BME280;61763;51.416;5.442;2022-12-13T08:56:47;101092.78;;;-5.36;100.00
73516;BME280;61763;51.416;5.442;2022-12-13T08:59:13;101096.56;;;-5.22;100.00
73516;BME280;61763;51.416;5.442;2022-12-13T09:01:38;101100.78;;;-5.29;100.00
73516;BME280;61763;51.416;5.442;2022-12-13T09:04:04;101108.13;;;-5.14;100.00
73516;BME280;61763;51.416;5.442;2022-12-13T09:06:29;101095.88;;;-5.10;100.00
73516;BME280;61763;51.416;5.442;2022-12-13T09:08:54;101100.53;;;-4.95;100.00
73516;BME280;61763;51.416;5.442;2022-12-13T09:11:20;101087.44;;;-4.90;100.00
73516;BME280;61763;51.416;5.442;2022-12-13T09:13:46;101105.19;;;-4.79;100.00
73516;BME280;61763;51.416;5.442;2022-12-13T09:16:13;101101.66;;;-4.81;100.00
73516;BME280;61763;51.416;5.442;2022-12-13T09:18:39;101097.97;;;-4.90;100.00
73516;BME280;61763;51.416;5.442;2022-12-13T09:21:09;101099.06;;;-4.78;100.00
73516;BME280;61763;51.416;5.442;2022-12-13T09:23:35;101099.19;;;-4.70;100.00
73516;BME280;61763;51.416;5.442;2022-12-13T09:26:01;101094.88;;;-4.66;100.00
73516;BME280;61763;51.416;5.442;2022-12-13T09:28:27;101103.72;;;-4.61;100.00
73516;BME280;61763;51.416;5.442;2022-12-13T09:30:56;101092.31;;;-4.62;100.00
73516;BME280;61763;51.416;5.442;2022-12-13T09:33:22;101100.06;;;-4.71;100.00
73516;BME280;61763;51.416;5.442;2022-12-13T09:35:47;101101.97;;;-4.61;100.00
73516;BME280;61763;51.416;5.442;2022-12-13T09:38:13;101097.50;;;-4.66;100.00
73516;BME280;61763;51.416;5.442;2022-12-13T09:40:39;101095.78;;;-4.63;100.00
73516;BME280;61763;51.416;5.442;2022-12-13T09:43:09;101096.75;;;-4.59;100.00
73516;BME280;61763;51.416;5.442;2022-12-13T09:45:38;101090.66;;;-4.53;100.00
73516;BME280;61763;51.416;5.442;2022-12-13T09:48:04;101092.41;;;-4.54;100.00
73516;BME280;61763;51.416;5.442;2022-12-13T09:50:33;101097.06;;;-4.36;100.00
73516;BME280;61763;51.416;5.442;2022-12-13T09:53:00;101093.28;;;-4.53;100.00
73516;BME280;61763;51.416;5.442;2022-12-13T09:55:30;101089.91;;;-4.45;100.00
73516;BME280;61763;51.416;5.442;2022-12-13T09:57:57;101093.44;;;-4.46;100.00
73516;BME280;61763;51.416;5.442;2022-12-13T10:00:26;101082.94;;;-4.43;100.00
73516;BME280;61763;51.416;5.442;2022-12-13T10:02:57;101082.03;;;-4.43;100.00
73516;BME280;61763;51.416;5.442;2022-12-13T10:05:31;101077.00;;;-4.28;100.00
73516;BME280;61763;51.416;5.442;2022-12-13T10:08:17;101070.91;;;-4.24;100.00
73516;BME280;61763;51.416;5.442;2022-12-13T10:10:45;101082.19;;;-4.34;100.00
73516;BME280;61763;51.416;5.442;2022-12-13T10:13:26;101070.91;;;-4.24;100.00
73516;BME280;61763;51.416;5.442;2022-12-13T10:16:01;101069.22;;;-4.17;100.00
73516;BME280;61763;51.416;5.442;2022-12-13T10:18:39;101063.13;;;-4.13;100.00
73516;BME280;61763;51.416;5.442;2022-12-13T10:21:23;101073.75;;;-4.07;100.00
73516;BME280;61763;51.416;5.442;2022-12-13T10:23:50;101061.56;;;-4.00;100.00
73516;BME280;61763;51.416;5.442;2022-12-13T10:26:16;101061.78;;;-3.80;100.00
73516;BME280;61763;51.416;5.442;2022-12-13T10:28:41;101052.22;;;-3.70;100.00
73516;BME280;61763;51.416;5.442;2022-12-13T10:31:14;101050.50;;;-3.68;100.00
73516;BME280;61763;51.416;5.442;2022-12-13T10:33:52;101047.81;;;-3.70;100.00
73516;BME280;61763;51.416;5.442;2022-12-13T10:38:53;101037.25;;;-3.71;100.00
73516;BME280;61763;51.416;5.442;2022-12-13T10:41:33;101034.75;;;-3.62;100.00
73516;BME280;61763;51.416;5.442;2022-12-13T10:46:41;101040.63;;;-3.84;100.00
73516;BME280;61763;51.416;5.442;2022-12-13T10:49:19;101042.47;;;-3.79;100.00
73516;BME280;61763;51.416;5.442;2022-12-13T10:51:47;101034.53;;;-3.80;100.00
73516;BME280;61763;51.416;5.442;2022-12-13T10:54:29;101033.75;;;-3.73;100.00
73516;BME280;61763;51.416;5.442;2022-12-13T10:56:57;101024.16;;;-3.65;100.00
73516;BME280;61763;51.416;5.442;2022-12-13T11:01:57;101010.34;;;-3.38;100.00
73516;BME280;61763;51.416;5.442;2022-12-13T11:04:30;101010.41;;;-3.30;100.00
73516;BME280;61763;51.416;5.442;2022-12-13T11:06:59;101000.03;;;-3.13;100.00
73516;BME280;61763;51.416;5.442;2022-12-13T11:11:57;100992.22;;;-2.96;100.00
73516;BME280;61763;51.416;5.442;2022-12-13T11:14:33;100989.50;;;-3.05;100.00
73516;BME280;61763;51.416;5.442;2022-12-13T11:17:12;101016.91;;;-2.92;100.00
73516;BME280;61763;51.416;5.442;2022-12-13T11:19:44;101004.50;;;-3.01;100.00
73516;BME280;61763;51.416;5.442;2022-12-13T11:22:26;100995.69;;;-3.03;100.00
73516;BME280;61763;51.416;5.442;2022-12-13T11:25:29;100995.75;;;-2.98;100.00
73516;BME280;61763;51.416;5.442;2022-12-13T11:30:23;100990.59;;;-2.75;100.00
73516;BME280;61763;51.416;5.442;2022-12-13T11:40:26;100984.34;;;-2.94;100.00
73516;BME280;61763;51.416;5.442;2022-12-13T11:42:58;100985.06;;;-3.08;100.00
73516;BME280;61763;51.416;5.442;2022-12-13T11:45:42;100982.41;;;-3.14;100.00
73516;BME280;61763;51.416;5.442;2022-12-13T11:48:19;100984.25;;;-2.99;100.00
73516;BME280;61763;51.416;5.442;2022-12-13T11:50:49;100964.94;;;-2.93;100.00
73516;BME280;61763;51.416;5.442;2022-12-13T11:56:03;100960.59;;;-2.90;100.00
73516;BME280;61763;51.416;5.442;2022-12-13T12:01:22;100950.09;;;-2.74;100.00
73516;BME280;61763;51.416;5.442;2022-12-13T12:03:58;100945.75;;;-2.69;100.00
73516;BME280;61763;51.416;5.442;2022-12-13T12:06:28;100937.81;;;-2.71;100.00
73516;BME280;61763;51.416;5.442;2022-12-13T12:09:02;100935.19;;;-2.63;100.00
73516;BME280;61763;51.416;5.442;2022-12-13T12:11:32;100936.06;;;-2.64;100.00
73516;BME280;61763;51.416;5.442;2022-12-13T12:14:12;100938.72;;;-2.61;100.00
73516;BME280;61763;51.416;5.442;2022-12-13T12:16:46;100939.56;;;-2.65;100.00
73516;BME280;61763;51.416;5.442;2022-12-13T12:19:14;100930.78;;;-2.64;100.00
73516;BME280;61763;51.416;5.442;2022-12-13T12:30:12;100924.66;;;-2.55;100.00
73516;BME280;61763;51.416;5.442;2022-12-13T12:32:51;100927.31;;;-2.57;100.00
73516;BME280;61763;51.416;5.442;2022-12-13T12:43:40;100930.00;;;-2.44;100.00
73516;BME280;61763;51.416;5.442;2022-12-13T12:49:03;100931.75;;;-2.47;100.00
73516;BME280;61763;51.416;5.442;2022-12-13T12:54:34;100932.69;;;-2.38;100.00
73516;BME280;61763;51.416;5.442;2022-12-13T12:57:26;100933.53;;;-2.42;100.00
73516;BME280;61763;51.416;5.442;2022-12-13T13:00:04;100930.81;;;-2.53;100.00
73516;BME280;61763;51.416;5.442;2022-12-13T13:02:48;100924.69;;;-2.46;100.00
73516;BME280;61763;51.416;5.442;2022-12-13T13:05:34;100920.34;;;-2.32;100.00
73516;BME280;61763;51.416;5.442;2022-12-13T13:08:16;100911.53;;;-2.40;100.00
73516;BME280;61763;51.416;5.442;2022-12-13T13:10:43;100916.00;;;-2.25;100.00
73516;BME280;61763;51.416;5.442;2022-12-13T13:16:01;100924.78;;;-2.26;100.00
73516;BME280;61763;51.416;5.442;2022-12-13T13:18:43;100930.94;;;-2.29;100.00
73516;BME280;61763;51.416;5.442;2022-12-13T13:23:47;100910.72;;;-2.09;100.00
73516;BME280;61763;51.416;5.442;2022-12-13T13:26:29;100916.00;;;-2.17;100.00
73516;BME280;61763;51.416;5.442;2022-12-13T13:31:58;100907.22;;;-2.15;100.00
73516;BME280;61763;51.416;5.442;2022-12-13T13:34:26;100912.50;;;-2.04;100.00
73516;BME280;61763;51.416;5.442;2022-12-13T13:36:52;100901.06;;;-1.98;99.40
73516;BME280;61763;51.416;5.442;2022-12-13T14:01:43;100875.50;;;-1.93;97.65
73516;BME280;61763;51.416;5.442;2022-12-13T14:09:57;100859.63;;;-1.90;97.60
73516;BME280;61763;51.416;5.442;2022-12-13T14:24:11;100869.34;;;-1.89;97.10
73516;BME280;61763;51.416;5.442;2022-12-13T14:29:30;100850.81;;;-1.89;95.91
73516;BME280;61763;51.416;5.442;2022-12-13T14:31:56;100849.94;;;-1.99;96.54
73516;BME280;61763;51.416;5.442;2022-12-13T14:37:04;100850.81;;;-2.03;97.45
73516;BME280;61763;51.416;5.442;2022-12-13T14:39:31;100850.81;;;-2.04;97.19
73516;BME280;61763;51.416;5.442;2022-12-13T14:42:01;100844.63;;;-2.11;97.56
73516;BME280;61763;51.416;5.442;2022-12-13T14:44:30;100844.63;;;-2.09;97.49
73516;BME280;61763;51.416;5.442;2022-12-13T14:47:04;100844.63;;;-2.11;96.96
73516;BME280;61763;51.416;5.442;2022-12-13T14:49:32;100833.16;;;-2.15;97.70
73516;BME280;61763;51.416;5.442;2022-12-13T14:52:05;100841.97;;;-2.22;98.74
73516;BME280;61763;51.416;5.442;2022-12-13T14:54:43;100840.19;;;-2.18;97.56
73516;BME280;61763;51.416;5.442;2022-12-13T14:57:18;100833.16;;;-2.21;97.70